createdAt,value
2023-05-17T00:03:57.968Z,3.08
2023-05-17T00:08:22.948Z,2.35
2023-05-17T00:12:45.180Z,2.80
2023-05-17T00:17:07.190Z,2.17
2023-05-17T00:21:29.503Z,2.90
2023-05-17T00:25:51.674Z,2.38
2023-05-17T00:30:14.776Z,2.90
2023-05-17T00:34:37.203Z,2.25
2023-05-17T00:38:59.404Z,3.00
2023-05-17T00:43:21.913Z,2.80
2023-05-17T00:47:44.132Z,3.35
2023-05-17T00:52:06.739Z,2.35
2023-05-17T00:56:28.967Z,3.70
2023-05-17T01:00:51.788Z,2.88
2023-05-17T01:05:15.237Z,3.10
2023-05-17T01:09:38.014Z,3.05
2023-05-17T01:14:13.653Z,3.10
2023-05-17T01:18:46.971Z,3.45
2023-05-17T01:23:24.473Z,3.90
2023-05-17T01:27:49.623Z,3.13
2023-05-17T01:32:13.727Z,3.38
2023-05-17T01:36:36.394Z,3.72
2023-05-17T01:41:16.775Z,3.40
2023-05-17T01:45:50.793Z,3.53
2023-05-17T01:50:17.975Z,4.07
2023-05-17T01:55:03.676Z,3.80
2023-05-17T01:59:27.374Z,3.80
2023-05-17T02:03:52.785Z,3.95
2023-05-17T02:08:16.063Z,3.67
2023-05-17T02:12:38.306Z,3.53
2023-05-17T02:17:00.395Z,4.47
2023-05-17T02:21:22.457Z,3.67
2023-05-17T02:25:44.596Z,3.88
2023-05-17T02:30:07.817Z,3.78
2023-05-17T02:34:29.619Z,4.25
2023-05-17T02:38:51.499Z,3.58
2023-05-17T02:43:13.585Z,4.32
2023-05-17T02:47:35.722Z,4.15
2023-05-17T02:51:57.714Z,3.55
2023-05-17T02:56:19.720Z,4.05
2023-05-17T03:00:46.569Z,4.05
2023-05-17T03:05:10.516Z,4.10
2023-05-17T03:09:38.074Z,4.45
2023-05-17T03:14:00.793Z,4.38
2023-05-17T03:18:25.169Z,3.95
2023-05-17T03:22:47.653Z,4.50
2023-05-17T03:27:09.764Z,5.00
2023-05-17T03:31:32.240Z,4.80
2023-05-17T03:35:54.571Z,4.82
2023-05-17T03:40:16.609Z,4.20
2023-05-17T03:44:38.991Z,4.53
2023-05-17T03:49:01.224Z,4.30
2023-05-17T03:53:24.557Z,4.43
2023-05-17T03:57:46.446Z,4.43
2023-05-17T04:02:08.555Z,4.13
2023-05-17T04:06:31.058Z,4.10
2023-05-17T04:10:53.714Z,3.92
2023-05-17T04:15:16.047Z,3.47
2023-05-17T04:19:38.789Z,4.53
2023-05-17T04:24:01.052Z,3.20
2023-05-17T04:28:24.781Z,3.65
2023-05-17T04:32:47.691Z,2.97
2023-05-17T04:37:09.724Z,3.20
2023-05-17T04:41:33.416Z,3.90
2023-05-17T04:46:00.999Z,4.03
2023-05-17T04:50:24.594Z,4.05
2023-05-17T04:54:46.757Z,3.72
2023-05-17T04:59:09.620Z,3.22
2023-05-17T05:03:32.064Z,4.03
2023-05-17T05:07:54.656Z,4.03
2023-05-17T05:12:16.893Z,3.45
2023-05-17T05:16:39.394Z,4.13
2023-05-17T05:21:01.950Z,3.92
2023-05-17T05:25:25.574Z,4.10
2023-05-17T05:29:47.864Z,4.50
2023-05-17T05:34:10.736Z,5.50
2023-05-17T05:38:33.131Z,4.70
2023-05-17T05:42:55.838Z,5.32
2023-05-17T05:47:18.058Z,5.07
2023-05-17T05:51:40.194Z,5.57
2023-05-17T05:56:02.255Z,5.68
2023-05-17T06:00:24.675Z,5.50
2023-05-17T06:04:49.699Z,5.40
2023-05-17T06:09:12.584Z,5.25
2023-05-17T06:13:34.893Z,5.22
2023-05-17T06:17:57.250Z,4.90
2023-05-17T06:22:19.444Z,4.43
2023-05-17T06:26:41.422Z,5.10
2023-05-17T06:31:03.461Z,5.22
2023-05-17T06:35:25.417Z,4.93
2023-05-17T06:39:55.515Z,5.07
2023-05-17T06:44:22.173Z,4.70
2023-05-17T06:48:44.620Z,5.20
2023-05-17T06:53:06.694Z,4.10
2023-05-17T06:57:28.700Z,5.65
2023-05-17T07:01:50.953Z,5.45
2023-05-17T07:06:12.876Z,5.75
2023-05-17T07:10:35.278Z,4.93
2023-05-17T07:14:57.615Z,4.38
2023-05-17T07:19:19.585Z,5.53
2023-05-17T07:23:41.659Z,4.80
2023-05-17T07:28:04.039Z,4.97
2023-05-17T07:32:26.197Z,4.60
2023-05-17T07:36:48.277Z,4.53
2023-05-17T07:41:13.452Z,4.00
2023-05-17T07:45:35.679Z,4.00
2023-05-17T07:49:58.348Z,4.20
2023-05-17T07:54:30.184Z,4.20
2023-05-17T07:58:52.267Z,3.88
2023-05-17T08:03:16.563Z,4.30
2023-05-17T08:07:39.695Z,3.40
2023-05-17T08:12:02.166Z,3.38
2023-05-17T08:16:24.164Z,4.18
2023-05-17T08:20:46.806Z,4.63
2023-05-17T08:25:09.797Z,4.00
2023-05-17T08:29:31.717Z,4.10
2023-05-17T08:33:54.004Z,4.32
2023-05-17T08:38:18.058Z,3.58
2023-05-17T08:42:42.797Z,4.07
2023-05-17T08:47:05.800Z,3.42
2023-05-17T08:51:28.851Z,3.70
2023-05-17T08:55:53.418Z,3.92
2023-05-17T09:00:20.467Z,4.70
2023-05-17T09:04:43.803Z,3.90
2023-05-17T09:09:09.580Z,4.10
2023-05-17T09:13:31.916Z,3.90
2023-05-17T09:17:55.614Z,4.00
2023-05-17T09:22:22.303Z,3.83
2023-05-17T09:26:46.465Z,3.72
2023-05-17T09:31:10.397Z,3.88
2023-05-17T09:35:33.503Z,3.60
2023-05-17T09:39:55.857Z,4.13
2023-05-17T09:44:18.063Z,3.75
2023-05-17T09:48:40.651Z,3.35
2023-05-17T09:53:02.999Z,3.58
2023-05-17T09:57:37.241Z,3.65
2023-05-17T10:02:01.597Z,3.75
2023-05-17T10:06:43.639Z,3.63
2023-05-17T10:11:08.970Z,3.08
2023-05-17T10:15:31.631Z,3.67
2023-05-17T10:19:55.217Z,3.28
2023-05-17T10:24:18.079Z,3.22
2023-05-17T10:28:41.379Z,2.78
2023-05-17T10:33:05.054Z,3.20
2023-05-17T10:37:30.472Z,2.97
2023-05-17T10:42:06.746Z,3.00
2023-05-17T10:46:37.156Z,2.72
2023-05-17T10:51:08.037Z,2.60
2023-05-17T10:55:42.614Z,2.80
2023-05-17T11:00:11.194Z,2.60
2023-05-17T11:04:42.350Z,2.63
2023-05-17T11:09:17.759Z,3.60
2023-05-17T11:13:56.704Z,3.13
2023-05-17T11:18:29.482Z,3.55
2023-05-17T11:23:07.100Z,2.88
2023-05-17T11:27:52.564Z,2.55
2023-05-17T11:32:15.197Z,3.58
2023-05-17T11:36:55.398Z,2.90
2023-05-17T11:41:26.853Z,2.97
2023-05-17T11:45:53.535Z,3.35
2023-05-17T11:50:17.964Z,3.72
2023-05-17T11:54:40.917Z,3.83
2023-05-17T11:59:04.596Z,3.53
2023-05-17T12:03:31.732Z,3.80
2023-05-17T12:07:54.218Z,3.13
2023-05-17T12:12:17.189Z,2.80
2023-05-17T12:16:43.219Z,3.47
2023-05-17T12:21:10.165Z,3.45
2023-05-17T12:25:32.820Z,3.85
2023-05-17T12:29:55.306Z,2.65
2023-05-17T12:34:22.444Z,2.95
2023-05-17T12:38:47.464Z,3.45
2023-05-17T12:43:13.453Z,2.72
2023-05-17T12:47:36.640Z,2.72
2023-05-17T12:52:10.680Z,2.92
2023-05-17T12:56:35.769Z,2.85
2023-05-17T13:01:07.747Z,2.88
2023-05-17T13:05:29.994Z,3.35
2023-05-17T13:09:52.535Z,3.00
2023-05-17T13:14:14.937Z,3.17
2023-05-17T13:18:52.141Z,2.72
2023-05-17T13:23:16.258Z,3.00
2023-05-17T13:27:38.798Z,2.67
2023-05-17T13:32:01.438Z,2.85
2023-05-17T13:36:24.327Z,3.53
2023-05-17T13:40:47.573Z,2.78
2023-05-17T13:45:11.897Z,3.08
2023-05-17T13:49:33.956Z,3.28
2023-05-17T13:53:56.719Z,3.60
2023-05-17T13:58:19.038Z,2.70
2023-05-17T14:02:41.347Z,3.75
2023-05-17T14:07:07.334Z,2.33
2023-05-17T14:11:29.612Z,2.65
2023-05-17T14:15:51.678Z,2.97
2023-05-17T14:20:14.603Z,2.92
2023-05-17T14:24:37.037Z,2.85
2023-05-17T14:28:59.318Z,3.05
2023-05-17T14:33:21.651Z,2.90
2023-05-17T14:37:44.718Z,2.95
2023-05-17T14:42:06.936Z,2.75
2023-05-17T14:46:28.937Z,3.50
2023-05-17T14:50:51.674Z,2.75
2023-05-17T14:55:16.626Z,2.65
2023-05-17T14:59:38.733Z,2.20
2023-05-17T15:04:00.721Z,4.80
2023-05-17T15:08:23.442Z,3.17
2023-05-17T15:12:45.960Z,2.72
2023-05-17T15:17:08.312Z,3.17
2023-05-17T15:21:30.834Z,3.28
2023-05-17T15:25:53.358Z,2.65
2023-05-17T15:30:16.279Z,2.42
2023-05-17T15:34:38.230Z,2.45
2023-05-17T15:39:00.454Z,2.58
2023-05-17T15:43:22.761Z,3.53
2023-05-17T15:47:45.904Z,4.00
2023-05-17T15:52:09.094Z,2.70
2023-05-17T15:56:31.778Z,2.65
2023-05-17T16:00:55.144Z,3.55
2023-05-17T16:05:17.135Z,4.05
2023-05-17T16:09:39.919Z,2.50
2023-05-17T16:14:02.181Z,2.97
2023-05-17T16:18:25.302Z,3.05
2023-05-17T16:22:48.478Z,2.75
2023-05-17T16:27:10.438Z,2.40
2023-05-17T16:31:32.862Z,2.70
2023-05-17T16:35:55.078Z,6.32
2023-05-17T16:40:17.178Z,3.40
2023-05-17T16:44:39.506Z,3.47
2023-05-17T16:49:02.342Z,2.80
2023-05-17T16:53:24.215Z,2.65
2023-05-17T16:57:46.804Z,3.25
2023-05-17T17:02:09.700Z,2.72
2023-05-17T17:06:34.044Z,3.00
2023-05-17T17:10:56.364Z,3.50
2023-05-17T17:15:18.462Z,2.22
2023-05-17T17:19:40.314Z,2.55
2023-05-17T17:24:06.754Z,2.25
2023-05-17T17:28:29.014Z,2.95
2023-05-17T17:32:51.271Z,2.80
2023-05-17T17:37:13.698Z,3.15
2023-05-17T17:41:35.716Z,2.88
2023-05-17T17:45:57.623Z,2.45
2023-05-17T17:50:19.942Z,3.30
2023-05-17T17:54:44.028Z,2.95
2023-05-17T17:59:08.137Z,2.22
2023-05-17T18:03:30.580Z,3.17
2023-05-17T18:07:53.159Z,2.42
2023-05-17T18:12:15.369Z,2.63
2023-05-17T18:16:37.996Z,3.55
2023-05-17T18:20:59.940Z,2.58
2023-05-17T18:25:22.298Z,2.40
2023-05-17T18:29:44.587Z,3.45
2023-05-17T18:34:06.556Z,3.67
2023-05-17T18:38:28.612Z,3.53
2023-05-17T18:42:50.679Z,2.97
2023-05-17T18:47:13.097Z,3.20
2023-05-17T18:51:35.498Z,3.50
2023-05-17T18:56:01.645Z,3.33
2023-05-17T19:00:24.797Z,3.45
2023-05-17T19:04:47.115Z,3.13
2023-05-17T19:09:09.051Z,3.50
2023-05-17T19:13:31.257Z,3.42
2023-05-17T19:17:53.250Z,3.13
2023-05-17T19:22:15.451Z,3.45
2023-05-17T19:26:37.657Z,3.75
2023-05-17T19:30:59.614Z,3.65
2023-05-17T19:35:21.863Z,3.85
2023-05-17T19:39:44.378Z,3.47
2023-05-17T19:44:06.804Z,4.10
2023-05-17T19:48:28.698Z,4.05
2023-05-17T19:52:50.947Z,4.05
2023-05-17T19:57:13.373Z,3.55
2023-05-17T20:01:35.725Z,4.18
2023-05-17T20:05:57.732Z,3.90
2023-05-17T20:10:20.259Z,3.88
2023-05-17T20:14:42.625Z,4.13
2023-05-17T20:19:04.963Z,4.15
2023-05-17T20:23:27.348Z,3.42
2023-05-17T20:27:49.310Z,4.22
2023-05-17T20:32:13.038Z,3.80
2023-05-17T20:36:35.479Z,4.50
2023-05-17T20:40:58.539Z,4.53
2023-05-17T20:45:21.833Z,3.70
2023-05-17T20:49:44.714Z,4.20
2023-05-17T20:54:08.940Z,4.78
2023-05-17T20:58:31.251Z,4.10
2023-05-17T21:02:53.286Z,3.80
2023-05-17T21:07:17.626Z,4.88
2023-05-17T21:11:39.525Z,5.00
2023-05-17T21:16:01.779Z,4.75
2023-05-17T21:20:25.846Z,4.82
2023-05-17T21:24:48.868Z,5.30
2023-05-17T21:29:12.314Z,4.57
2023-05-17T21:33:34.581Z,4.13
2023-05-17T21:37:56.553Z,5.22
2023-05-17T21:42:18.777Z,5.32
2023-05-17T21:46:40.988Z,5.53
2023-05-17T21:51:03.242Z,6.55
2023-05-17T21:55:25.492Z,5.65
2023-05-17T21:59:49.388Z,6.72
2023-05-17T22:04:11.432Z,6.22
2023-05-17T22:08:33.671Z,6.68
2023-05-17T22:12:56.113Z,6.55
2023-05-17T22:17:18.111Z,6.38
2023-05-17T22:21:40.132Z,5.93
2023-05-17T22:26:02.271Z,5.53
2023-05-17T22:30:24.543Z,6.20
2023-05-17T22:34:46.591Z,11.85
2023-05-17T22:39:09.816Z,5.18
2023-05-17T22:43:31.900Z,5.45
2023-05-17T22:47:54.392Z,5.70
2023-05-17T22:52:17.648Z,7.00
2023-05-17T22:56:39.737Z,4.82
2023-05-17T23:01:02.087Z,5.43
2023-05-17T23:05:24.509Z,5.45
2023-05-17T23:09:47.384Z,5.78
2023-05-17T23:14:11.483Z,5.80
2023-05-17T23:18:34.234Z,5.53
2023-05-17T23:22:56.277Z,5.22
2023-05-17T23:27:18.718Z,5.90
2023-05-17T23:31:41.593Z,4.97
2023-05-17T23:36:03.857Z,5.63
2023-05-17T23:40:26.157Z,5.00
2023-05-17T23:44:48.954Z,5.35
2023-05-17T23:49:11.233Z,5.43
2023-05-17T23:53:34.353Z,5.20
2023-05-17T23:57:56.431Z,6.45
